• Join FlightAware (Why Join?)
  • Login
  • US Flag 
10:11AM EST


 

Airport Tracker/Info


-or-


 

Live Flight TrackerFlight Track Log ✈ UCA3597 ✈ 01-Oct-2013 ✈ KBGM - KIAD

Flight Track Log - Related Links

Times and Time Zones

All times are in EDT time to prevent confusion due to time zone crossing. See the UCA3597 flight status page for this flight to view local times or setup timezone preferences in your user account.

Time Position Orientation Groundspeed Altitude Reporting Facility
EDT Latitude Longitude Course Direction KTS MPH feet Rate Location/Type
07:17PM 42.2094 -76.0622 210° Southwest 155 178 5,200  Level New York Center
07:18PM 42.1642 -76.0978 210° Southwest 169 194 6,900 1,740 Climbing New York Center
07:19PM 42.1142 -76.1411 213° Southwest 195 224 8,700 1,860 Climbing New York Center
07:20PM 42.0667 -76.1792 211° Southwest 207 238 10,700 2,040 Climbing New York Center
07:21PM 42.0103 -76.2278 213° Southwest 220 253 12,800 1,920 Climbing New York Center
07:22PM 41.9692 -76.2606 211° Southwest 210 242 14,600 1,560 Climbing New York Center
07:23PM 41.9153 -76.3033 211° Southwest 210 242 16,000 660 Climbing New York Center
07:24PM 41.8589 -76.3517 213° Southwest 230 265 16,000  Level New York Center
07:25PM 41.8047 -76.3972 212° Southwest 252 290 16,000  Level New York Center
07:26PM 41.7394 -76.4528 212° Southwest 277 319 16,000  Level New York Center
07:27PM 41.6669 -76.4883 200° South 283 326 16,000  Level New York Center
07:28PM 41.5839 -76.5256 199° South 288 331 16,000  Level New York Center
07:29PM 41.5072 -76.5606 199° South 293 337 16,000  Level New York Center
07:30PM 41.4328 -76.5958 200° South 293 337 16,000  Level New York Center
07:31PM 41.3644 -76.6258 198° South 293 337 16,000  Level New York Center
07:32PM 41.2814 -76.6628 198° South 293 337 16,000  Level New York Center
07:33PM 41.2028 -76.6972 198° South 293 337 16,000  Level New York Center
07:34PM 41.1261 -76.7264 196° South 293 337 16,000  Level New York Center
07:35PM 41.0497 -76.7556 196° South 293 337 16,000  Level New York Center
07:36PM 40.9733 -76.7817 194° South 293 337 16,000  Level New York Center
07:37PM 40.8947 -76.8131 197° South 293 337 16,000  Level New York Center
07:38PM 40.8267 -76.8400 197° South 293 337 16,000  Level New York Center
07:39PM 40.7417 -76.8708 195° South 288 331 16,000  Level New York Center
07:40PM 40.6714 -76.8975 196° South 288 331 16,000  Level New York Center
07:41PM 40.5886 -76.9283 196° South 288 331 16,000  Level New York Center
07:42PM 40.5164 -76.9547 196° South 293 337 16,000 -180 Level New York Center
07:43PM 40.4311 -76.9881 197° South 293 337 15,700 -600 Descending New York Center
07:44PM 40.3611 -77.0144 196° South 293 337 14,800 -1,020 Descending New York Center
07:45PM 40.2167 -77.0667 195° South 301 346 13,100 -1,020 Descending Potomac TRACON
07:46PM 40.1333 -77.0833 189° South 295 339 12,100 -1,020 Descending Potomac TRACON
07:47PM 40.0667 -77.1167 201° Southwest 290 334 11,100 -960 Descending Potomac TRACON
07:48PM 39.9833 -77.1333 189° South 294 338 10,100 -1,020 Descending Potomac TRACON
07:49PM 39.9000 -77.1667 197° South 297 342 9,100 -720 Descending Potomac TRACON
07:50PM 39.8333 -77.1833 191° South 288 331 8,800 -600 Descending Potomac TRACON
07:51PM 39.7500 -77.2000 189° South 288 331 8,000 -420 Descending Potomac TRACON
07:52PM 39.6667 -77.2500 205° Southwest 268 308 8,000  Level Potomac TRACON
07:53PM 39.6333 -77.3167 237° Southwest 264 304 8,000 -540 Level Potomac TRACON
07:54PM 39.5667 -77.3500 201° Southwest 281 323 7,000 -1,020 Descending Potomac TRACON
07:55PM 39.4833 -77.3500 180° South 266 306 5,900 -1,020 Descending Potomac TRACON
07:56PM 39.4000 -77.3667 189° South 263 303 4,900 -960 Descending Potomac TRACON
07:57PM 39.3333 -77.3667 180° South 260 299 4,000 -480 Descending Potomac TRACON
07:58PM 39.2667 -77.3667 180° South 256 295 4,000  Level Potomac TRACON
07:59PM 39.2000 -77.3500 169° South 255 293 4,000  Level Potomac TRACON
08:00PM 39.1167 -77.3500 180° South 254 292 4,000  Level Potomac TRACON
08:01PM 39.0500 -77.3500 180° South 255 293 4,000  Level Potomac TRACON
08:02PM 38.9833 -77.3500 180° South 246 283 4,000  Level Potomac TRACON
08:03PM 38.9167 -77.3500 180° South 237 273 4,000  Level Potomac TRACON
08:04PM 38.8500 -77.3667 191° South 231 266 4,000 -540 Level Potomac TRACON
08:05PM 38.8000 -77.3667 180° South 237 273 3,000 -960 Descending Potomac TRACON
08:06PM 38.8000 -77.4167 270° West 222 255 2,100 -600 Descending Potomac TRACON
08:07PM 38.8500 -77.4333 345° North 185 213 1,800 -540 Descending Potomac TRACON
08:08PM 38.8833 -77.4333 360° North 125 144 1,100 -660 Descending Potomac TRACON
08:09PM 38.9167 -77.4333 360° North 98 113 600 -600 Descending Potomac TRACON
08:11PM 38.9333 -77.4500 349° North  Level FlightAware Approximate
08:18PM 38.9474 -77.4599 349° North  Level Estimated